sensor_id;sensor_type;location;lat;lon;timestamp;temperature;humidity
10296;DHT22;5193;51.032;6.356;2023-07-22T00:01:34;11.40;1.00
10296;DHT22;5193;51.032;6.356;2023-07-22T00:03:59;11.40;1.00
10296;DHT22;5193;51.032;6.356;2023-07-22T00:06:26;11.40;1.00
10296;DHT22;5193;51.032;6.356;2023-07-22T00:08:51;11.30;1.00
10296;DHT22;5193;51.032;6.356;2023-07-22T00:11:19;11.30;1.00
10296;DHT22;5193;51.032;6.356;2023-07-22T00:13:45;11.30;1.00
10296;DHT22;5193;51.032;6.356;2023-07-22T00:16:11;11.20;1.00
10296;DHT22;5193;51.032;6.356;2023-07-22T00:18:36;11.20;1.00
10296;DHT22;5193;51.032;6.356;2023-07-22T00:21:02;11.20;1.00
10296;DHT22;5193;51.032;6.356;2023-07-22T00:23:28;11.20;1.00
10296;DHT22;5193;51.032;6.356;2023-07-22T00:25:54;11.10;1.00
10296;DHT22;5193;51.032;6.356;2023-07-22T00:28:20;11.10;1.00
10296;DHT22;5193;51.032;6.356;2023-07-22T00:30:46;11.10;1.00
10296;DHT22;5193;51.032;6.356;2023-07-22T00:33:11;11.00;1.00
10296;DHT22;5193;51.032;6.356;2023-07-22T00:35:38;11.00;1.00
10296;DHT22;5193;51.032;6.356;2023-07-22T00:38:04;11.00;1.00
10296;DHT22;5193;51.032;6.356;2023-07-22T00:40:30;10.90;1.00
10296;DHT22;5193;51.032;6.356;2023-07-22T00:42:57;10.90;1.00
10296;DHT22;5193;51.032;6.356;2023-07-22T00:45:24;10.90;1.00
10296;DHT22;5193;51.032;6.356;2023-07-22T00:47:50;10.90;1.00
10296;DHT22;5193;51.032;6.356;2023-07-22T00:50:16;10.80;1.00
10296;DHT22;5193;51.032;6.356;2023-07-22T00:52:42;10.80;1.00
10296;DHT22;5193;51.032;6.356;2023-07-22T00:55:14;10.80;1.00
10296;DHT22;5193;51.032;6.356;2023-07-22T01:01:01;10.70;1.00
10296;DHT22;5193;51.032;6.356;2023-07-22T01:03:27;10.60;1.00
10296;DHT22;5193;51.032;6.356;2023-07-22T01:05:53;10.90;1.00
10296;DHT22;5193;51.032;6.356;2023-07-22T01:08:20;10.60;1.00
10296;DHT22;5193;51.032;6.356;2023-07-22T01:10:45;11.20;1.00
10296;DHT22;5193;51.032;6.356;2023-07-22T01:13:11;11.30;1.00
10296;DHT22;5193;51.032;6.356;2023-07-22T01:15:37;10.50;1.00
10296;DHT22;5193;51.032;6.356;2023-07-22T01:18:03;10.50;1.00
10296;DHT22;5193;51.032;6.356;2023-07-22T01:20:30;10.50;1.00
10296;DHT22;5193;51.032;6.356;2023-07-22T01:22:57;10.60;1.00
10296;DHT22;5193;51.032;6.356;2023-07-22T01:25:24;10.30;1.00
10296;DHT22;5193;51.032;6.356;2023-07-22T01:27:53;10.20;1.00
10296;DHT22;5193;51.032;6.356;2023-07-22T01:30:19;10.60;1.00
10296;DHT22;5193;51.032;6.356;2023-07-22T01:32:46;10.80;1.00
10296;DHT22;5193;51.032;6.356;2023-07-22T01:35:13;10.40;1.00
10296;DHT22;5193;51.032;6.356;2023-07-22T01:37:39;10.40;1.00
10296;DHT22;5193;51.032;6.356;2023-07-22T01:40:06;9.90;1.00
10296;DHT22;5193;51.032;6.356;2023-07-22T01:42:38;10.30;1.00
10296;DHT22;5193;51.032;6.356;2023-07-22T01:45:05;10.60;1.00
10296;DHT22;5193;51.032;6.356;2023-07-22T01:47:34;10.30;1.00
10296;DHT22;5193;51.032;6.356;2023-07-22T01:50:00;9.90;1.00
10296;DHT22;5193;51.032;6.356;2023-07-22T01:52:26;10.60;1.00
10296;DHT22;5193;51.032;6.356;2023-07-22T01:54:51;10.50;1.00
10296;DHT22;5193;51.032;6.356;2023-07-22T01:57:17;11.40;1.00
10296;DHT22;5193;51.032;6.356;2023-07-22T01:59:43;10.50;1.00
10296;DHT22;5193;51.032;6.356;2023-07-22T02:02:08;10.20;1.00
10296;DHT22;5193;51.032;6.356;2023-07-22T02:04:35;10.50;1.00
10296;DHT22;5193;51.032;6.356;2023-07-22T02:07:02;10.50;1.00
10296;DHT22;5193;51.032;6.356;2023-07-22T02:09:29;10.30;1.00
10296;DHT22;5193;51.032;6.356;2023-07-22T02:11:54;10.40;1.00
10296;DHT22;5193;51.032;6.356;2023-07-22T02:14:20;11.60;1.00
10296;DHT22;5193;51.032;6.356;2023-07-22T02:16:46;11.40;1.00
10296;DHT22;5193;51.032;6.356;2023-07-22T02:19:11;11.60;1.00
10296;DHT22;5193;51.032;6.356;2023-07-22T02:21:37;10.50;1.00
10296;DHT22;5193;51.032;6.356;2023-07-22T02:24:02;10.90;1.00
10296;DHT22;5193;51.032;6.356;2023-07-22T02:26:28;10.10;1.00
10296;DHT22;5193;51.032;6.356;2023-07-22T02:28:54;10.30;1.00
10296;DHT22;5193;51.032;6.356;2023-07-22T02:31:20;10.90;1.00
10296;DHT22;5193;51.032;6.356;2023-07-22T02:33:48;10.20;1.00
10296;DHT22;5193;51.032;6.356;2023-07-22T02:36:13;10.70;1.00
10296;DHT22;5193;51.032;6.356;2023-07-22T02:38:39;10.10;1.00
10296;DHT22;5193;51.032;6.356;2023-07-22T02:41:05;10.10;1.00
10296;DHT22;5193;51.032;6.356;2023-07-22T02:43:36;10.40;1.00
10296;DHT22;5193;51.032;6.356;2023-07-22T02:46:22;10.10;1.00
10296;DHT22;5193;51.032;6.356;2023-07-22T02:48:47;10.10;1.00
10296;DHT22;5193;51.032;6.356;2023-07-22T02:51:14;10.10;1.00
10296;DHT22;5193;51.032;6.356;2023-07-22T02:53:39;10.10;1.00
10296;DHT22;5193;51.032;6.356;2023-07-22T02:56:07;10.10;1.00
10296;DHT22;5193;51.032;6.356;2023-07-22T02:58:33;10.00;1.00
10296;DHT22;5193;51.032;6.356;2023-07-22T03:00:59;10.10;1.00
10296;DHT22;5193;51.032;6.356;2023-07-22T03:03:25;10.20;1.00
10296;DHT22;5193;51.032;6.356;2023-07-22T03:05:51;10.00;1.00
10296;DHT22;5193;51.032;6.356;2023-07-22T03:08:18;10.20;1.00
10296;DHT22;5193;51.032;6.356;2023-07-22T03:10:44;10.90;1.00
10296;DHT22;5193;51.032;6.356;2023-07-22T03:13:17;10.30;1.00
10296;DHT22;5193;51.032;6.356;2023-07-22T03:15:43;9.80;1.00
10296;DHT22;5193;51.032;6.356;2023-07-22T03:18:10;10.10;1.00
10296;DHT22;5193;51.032;6.356;2023-07-22T03:20:37;10.20;1.00
10296;DHT22;5193;51.032;6.356;2023-07-22T03:23:04;10.00;1.00
10296;DHT22;5193;51.032;6.356;2023-07-22T03:25:31;10.40;1.00
10296;DHT22;5193;51.032;6.356;2023-07-22T03:27:59;10.30;1.00
10296;DHT22;5193;51.032;6.356;2023-07-22T03:30:27;10.70;1.00
10296;DHT22;5193;51.032;6.356;2023-07-22T03:32:53;10.30;1.00
10296;DHT22;5193;51.032;6.356;2023-07-22T03:35:18;9.90;1.00
10296;DHT22;5193;51.032;6.356;2023-07-22T03:37:47;10.40;1.00
10296;DHT22;5193;51.032;6.356;2023-07-22T03:40:14;10.70;1.00
10296;DHT22;5193;51.032;6.356;2023-07-22T03:42:51;10.50;1.00
10296;DHT22;5193;51.032;6.356;2023-07-22T03:45:18;10.60;1.00
10296;DHT22;5193;51.032;6.356;2023-07-22T03:47:47;10.60;1.00
10296;DHT22;5193;51.032;6.356;2023-07-22T03:50:13;10.90;1.00
10296;DHT22;5193;51.032;6.356;2023-07-22T03:52:39;11.00;1.00
10296;DHT22;5193;51.032;6.356;2023-07-22T03:55:05;11.20;1.00
10296;DHT22;5193;51.032;6.356;2023-07-22T03:57:31;10.90;1.00
10296;DHT22;5193;51.032;6.356;2023-07-22T03:59:57;11.30;1.00
10296;DHT22;5193;51.032;6.356;2023-07-22T04:02:25;11.60;1.00
10296;DHT22;5193;51.032;6.356;2023-07-22T04:04:51;11.00;1.00
10296;DHT22;5193;51.032;6.356;2023-07-22T04:07:17;11.00;1.00
10296;DHT22;5193;51.032;6.356;2023-07-22T04:09:44;10.90;1.00
10296;DHT22;5193;51.032;6.356;2023-07-22T04:12:12;11.10;1.00
10296;DHT22;5193;51.032;6.356;2023-07-22T04:14:38;11.00;1.00
10296;DHT22;5193;51.032;6.356;2023-07-22T04:17:04;11.80;1.00
10296;DHT22;5193;51.032;6.356;2023-07-22T04:19:30;11.20;1.00
10296;DHT22;5193;51.032;6.356;2023-07-22T04:21:56;11.50;1.00
10296;DHT22;5193;51.032;6.356;2023-07-22T04:24:23;11.30;1.00
10296;DHT22;5193;51.032;6.356;2023-07-22T04:26:50;11.80;1.00
10296;DHT22;5193;51.032;6.356;2023-07-22T04:29:16;11.70;1.00
10296;DHT22;5193;51.032;6.356;2023-07-22T04:31:42;10.90;1.00
10296;DHT22;5193;51.032;6.356;2023-07-22T04:34:08;11.60;1.00
10296;DHT22;5193;51.032;6.356;2023-07-22T04:36:34;11.40;1.00
10296;DHT22;5193;51.032;6.356;2023-07-22T04:39:02;11.00;1.00
10296;DHT22;5193;51.032;6.356;2023-07-22T04:41:30;11.40;1.00
10296;DHT22;5193;51.032;6.356;2023-07-22T04:43:57;11.50;1.00
10296;DHT22;5193;51.032;6.356;2023-07-22T04:46:24;11.60;1.00
10296;DHT22;5193;51.032;6.356;2023-07-22T04:48:56;11.60;1.00
10296;DHT22;5193;51.032;6.356;2023-07-22T04:51:22;11.70;1.00
10296;DHT22;5193;51.032;6.356;2023-07-22T04:53:48;11.80;1.00
10296;DHT22;5193;51.032;6.356;2023-07-22T04:56:13;11.80;1.00
10296;DHT22;5193;51.032;6.356;2023-07-22T04:58:39;11.70;1.00
10296;DHT22;5193;51.032;6.356;2023-07-22T05:01:05;11.90;1.00
10296;DHT22;5193;51.032;6.356;2023-07-22T05:03:30;12.10;1.00
10296;DHT22;5193;51.032;6.356;2023-07-22T05:05:56;12.50;1.00
10296;DHT22;5193;51.032;6.356;2023-07-22T05:08:23;12.00;1.00
10296;DHT22;5193;51.032;6.356;2023-07-22T05:10:49;12.50;1.00
10296;DHT22;5193;51.032;6.356;2023-07-22T05:13:14;12.10;1.00
10296;DHT22;5193;51.032;6.356;2023-07-22T05:15:40;11.90;1.00
10296;DHT22;5193;51.032;6.356;2023-07-22T05:18:07;13.70;1.00
10296;DHT22;5193;51.032;6.356;2023-07-22T05:20:34;12.40;1.00
10296;DHT22;5193;51.032;6.356;2023-07-22T05:23:00;12.40;5.40
10296;DHT22;5193;51.032;6.356;2023-07-22T05:25:25;12.80;4.30
10296;DHT22;5193;51.032;6.356;2023-07-22T05:27:51;12.40;1.00
10296;DHT22;5193;51.032;6.356;2023-07-22T05:30:17;12.50;1.00
10296;DHT22;5193;51.032;6.356;2023-07-22T05:32:42;12.90;1.00
10296;DHT22;5193;51.032;6.356;2023-07-22T05:35:08;12.60;1.00
10296;DHT22;5193;51.032;6.356;2023-07-22T05:37:34;13.30;2.60
10296;DHT22;5193;51.032;6.356;2023-07-22T05:40:00;13.20;12.00
10296;DHT22;5193;51.032;6.356;2023-07-22T05:42:26;13.30;12.90
10296;DHT22;5193;51.032;6.356;2023-07-22T05:44:54;13.50;4.70
10296;DHT22;5193;51.032;6.356;2023-07-22T05:47:20;14.00;1.00
10296;DHT22;5193;51.032;6.356;2023-07-22T05:49:46;13.90;1.00
10296;DHT22;5193;51.032;6.356;2023-07-22T05:52:11;14.00;1.00
10296;DHT22;5193;51.032;6.356;2023-07-22T05:54:37;14.10;1.00
10296;DHT22;5193;51.032;6.356;2023-07-22T05:57:02;14.20;1.00
10296;DHT22;5193;51.032;6.356;2023-07-22T05:59:30;14.40;1.00
10296;DHT22;5193;51.032;6.356;2023-07-22T06:01:57;14.40;1.00
10296;DHT22;5193;51.032;6.356;2023-07-22T06:04:23;14.60;1.00
10296;DHT22;5193;51.032;6.356;2023-07-22T06:06:50;14.80;1.00
10296;DHT22;5193;51.032;6.356;2023-07-22T06:09:16;14.90;1.00
10296;DHT22;5193;51.032;6.356;2023-07-22T06:11:41;15.00;1.00
10296;DHT22;5193;51.032;6.356;2023-07-22T06:14:07;15.10;1.00
10296;DHT22;5193;51.032;6.356;2023-07-22T06:16:33;15.10;1.00
10296;DHT22;5193;51.032;6.356;2023-07-22T06:18:59;15.30;1.00
10296;DHT22;5193;51.032;6.356;2023-07-22T06:21:25;15.20;1.00
10296;DHT22;5193;51.032;6.356;2023-07-22T06:23:51;15.40;1.00
10296;DHT22;5193;51.032;6.356;2023-07-22T06:26:16;15.50;1.00
10296;DHT22;5193;51.032;6.356;2023-07-22T06:28:42;15.60;1.00
10296;DHT22;5193;51.032;6.356;2023-07-22T06:31:09;15.80;1.00
10296;DHT22;5193;51.032;6.356;2023-07-22T06:33:34;15.70;1.00
10296;DHT22;5193;51.032;6.356;2023-07-22T06:36:02;15.80;1.00
10296;DHT22;5193;51.032;6.356;2023-07-22T06:38:27;15.90;1.00
10296;DHT22;5193;51.032;6.356;2023-07-22T06:40:53;16.00;1.00
10296;DHT22;5193;51.032;6.356;2023-07-22T06:43:19;16.10;1.00
10296;DHT22;5193;51.032;6.356;2023-07-22T06:45:45;16.10;1.00
10296;DHT22;5193;51.032;6.356;2023-07-22T06:48:12;16.20;1.00
10296;DHT22;5193;51.032;6.356;2023-07-22T06:50:38;16.20;1.00
10296;DHT22;5193;51.032;6.356;2023-07-22T06:53:04;16.30;1.00
10296;DHT22;5193;51.032;6.356;2023-07-22T06:55:31;16.30;1.00
10296;DHT22;5193;51.032;6.356;2023-07-22T06:57:56;16.40;1.00
10296;DHT22;5193;51.032;6.356;2023-07-22T07:00:22;16.40;1.00
10296;DHT22;5193;51.032;6.356;2023-07-22T07:02:50;16.50;1.00
10296;DHT22;5193;51.032;6.356;2023-07-22T07:05:16;16.70;1.00
10296;DHT22;5193;51.032;6.356;2023-07-22T07:07:43;16.60;1.00
10296;DHT22;5193;51.032;6.356;2023-07-22T07:10:09;16.80;1.00
10296;DHT22;5193;51.032;6.356;2023-07-22T07:12:34;16.80;1.00
10296;DHT22;5193;51.032;6.356;2023-07-22T07:15:01;16.80;1.00
10296;DHT22;5193;51.032;6.356;2023-07-22T07:17:26;16.90;1.00
10296;DHT22;5193;51.032;6.356;2023-07-22T07:19:52;17.00;1.00
10296;DHT22;5193;51.032;6.356;2023-07-22T07:22:18;17.00;1.00
10296;DHT22;5193;51.032;6.356;2023-07-22T07:24:44;17.10;99.90
10296;DHT22;5193;51.032;6.356;2023-07-22T07:27:10;17.20;99.90
10296;DHT22;5193;51.032;6.356;2023-07-22T07:29:35;17.30;99.90
10296;DHT22;5193;51.032;6.356;2023-07-22T07:32:01;17.40;99.90
10296;DHT22;5193;51.032;6.356;2023-07-22T07:34:26;17.50;99.90
10296;DHT22;5193;51.032;6.356;2023-07-22T07:36:52;17.70;99.90
10296;DHT22;5193;51.032;6.356;2023-07-22T07:39:17;17.90;1.00
10296;DHT22;5193;51.032;6.356;2023-07-22T07:41:43;18.00;99.90
10296;DHT22;5193;51.032;6.356;2023-07-22T07:44:08;17.90;99.90
10296;DHT22;5193;51.032;6.356;2023-07-22T07:46:34;18.00;1.00
10296;DHT22;5193;51.032;6.356;2023-07-22T07:49:01;18.10;1.00
10296;DHT22;5193;51.032;6.356;2023-07-22T07:51:29;18.20;99.90
10296;DHT22;5193;51.032;6.356;2023-07-22T07:53:56;18.40;1.00
10296;DHT22;5193;51.032;6.356;2023-07-22T07:56:22;18.60;1.00
10296;DHT22;5193;51.032;6.356;2023-07-22T07:58:49;18.80;99.90
10296;DHT22;5193;51.032;6.356;2023-07-22T08:01:15;19.00;1.00
10296;DHT22;5193;51.032;6.356;2023-07-22T08:03:43;19.30;1.00
10296;DHT22;5193;51.032;6.356;2023-07-22T08:06:09;19.50;99.90
10296;DHT22;5193;51.032;6.356;2023-07-22T08:08:35;19.80;1.00
10296;DHT22;5193;51.032;6.356;2023-07-22T08:11:03;20.10;99.90
10296;DHT22;5193;51.032;6.356;2023-07-22T08:13:30;20.20;99.90
10296;DHT22;5193;51.032;6.356;2023-07-22T08:15:58;20.20;99.90
10296;DHT22;5193;51.032;6.356;2023-07-22T08:18:24;20.30;99.90
10296;DHT22;5193;51.032;6.356;2023-07-22T08:20:51;20.40;1.00
10296;DHT22;5193;51.032;6.356;2023-07-22T08:23:17;20.50;1.00
10296;DHT22;5193;51.032;6.356;2023-07-22T08:25:43;20.60;90.40
10296;DHT22;5193;51.032;6.356;2023-07-22T08:28:08;20.60;99.90
10296;DHT22;5193;51.032;6.356;2023-07-22T08:30:34;20.60;1.00
10296;DHT22;5193;51.032;6.356;2023-07-22T08:33:00;20.70;68.10
10296;DHT22;5193;51.032;6.356;2023-07-22T08:35:26;20.60;99.90
10296;DHT22;5193;51.032;6.356;2023-07-22T08:38:00;20.70;1.00
10296;DHT22;5193;51.032;6.356;2023-07-22T08:40:25;20.60;1.00
10296;DHT22;5193;51.032;6.356;2023-07-22T08:42:52;20.60;66.10
10296;DHT22;5193;51.032;6.356;2023-07-22T08:45:19;20.70;99.90
10296;DHT22;5193;51.032;6.356;2023-07-22T08:47:46;20.70;30.20
10296;DHT22;5193;51.032;6.356;2023-07-22T08:50:16;20.70;99.90
10296;DHT22;5193;51.032;6.356;2023-07-22T08:52:44;20.70;1.00
10296;DHT22;5193;51.032;6.356;2023-07-22T08:55:11;20.70;99.90
10296;DHT22;5193;51.032;6.356;2023-07-22T08:57:37;20.70;99.90
10296;DHT22;5193;51.032;6.356;2023-07-22T09:00:04;20.80;1.00
10296;DHT22;5193;51.032;6.356;2023-07-22T09:02:33;20.90;1.00
10296;DHT22;5193;51.032;6.356;2023-07-22T09:04:59;20.90;99.90
10296;DHT22;5193;51.032;6.356;2023-07-22T09:07:25;20.80;99.90
10296;DHT22;5193;51.032;6.356;2023-07-22T09:09:51;20.80;99.90
10296;DHT22;5193;51.032;6.356;2023-07-22T09:12:18;20.80;1.00
10296;DHT22;5193;51.032;6.356;2023-07-22T09:14:47;20.80;99.40
10296;DHT22;5193;51.032;6.356;2023-07-22T09:17:13;20.90;1.00
10296;DHT22;5193;51.032;6.356;2023-07-22T09:19:39;21.00;99.90
10296;DHT22;5193;51.032;6.356;2023-07-22T09:22:04;21.20;1.00
10296;DHT22;5193;51.032;6.356;2023-07-22T09:24:30;21.40;1.00
10296;DHT22;5193;51.032;6.356;2023-07-22T09:26:57;21.50;1.00
10296;DHT22;5193;51.032;6.356;2023-07-22T09:29:39;21.80;1.00
10296;DHT22;5193;51.032;6.356;2023-07-22T09:32:10;21.80;1.00
10296;DHT22;5193;51.032;6.356;2023-07-22T09:34:35;21.90;1.00
10296;DHT22;5193;51.032;6.356;2023-07-22T09:37:01;22.00;99.90
10296;DHT22;5193;51.032;6.356;2023-07-22T09:39:29;22.00;1.00
10296;DHT22;5193;51.032;6.356;2023-07-22T09:41:55;21.90;99.90
10296;DHT22;5193;51.032;6.356;2023-07-22T09:44:32;21.90;1.00
10296;DHT22;5193;51.032;6.356;2023-07-22T09:47:07;21.90;99.90
10296;DHT22;5193;51.032;6.356;2023-07-22T09:49:40;22.00;1.00
10296;DHT22;5193;51.032;6.356;2023-07-22T09:52:09;22.00;1.00
10296;DHT22;5193;51.032;6.356;2023-07-22T09:54:46;22.00;34.10
10296;DHT22;5193;51.032;6.356;2023-07-22T09:57:13;21.90;99.90
10296;DHT22;5193;51.032;6.356;2023-07-22T09:59:39;21.70;99.90
10296;DHT22;5193;51.032;6.356;2023-07-22T10:02:06;21.70;99.90
10296;DHT22;5193;51.032;6.356;2023-07-22T10:04:33;21.70;99.90
10296;DHT22;5193;51.032;6.356;2023-07-22T10:07:04;21.60;99.90
10296;DHT22;5193;51.032;6.356;2023-07-22T10:09:31;21.60;82.10
10296;DHT22;5193;51.032;6.356;2023-07-22T10:11:58;21.60;1.00
10296;DHT22;5193;51.032;6.356;2023-07-22T10:14:24;21.60;97.60
10296;DHT22;5193;51.032;6.356;2023-07-22T10:16:50;21.60;99.90
10296;DHT22;5193;51.032;6.356;2023-07-22T10:19:18;21.70;1.00
10296;DHT22;5193;51.032;6.356;2023-07-22T10:21:44;21.70;1.00
10296;DHT22;5193;51.032;6.356;2023-07-22T10:24:10;21.90;99.90
10296;DHT22;5193;51.032;6.356;2023-07-22T10:26:36;22.00;99.90
10296;DHT22;5193;51.032;6.356;2023-07-22T10:29:02;22.10;1.00
10296;DHT22;5193;51.032;6.356;2023-07-22T10:31:32;22.20;1.00
10296;DHT22;5193;51.032;6.356;2023-07-22T10:33:58;22.40;1.00
10296;DHT22;5193;51.032;6.356;2023-07-22T10:36:29;22.50;1.00
10296;DHT22;5193;51.032;6.356;2023-07-22T10:38:56;22.70;1.00
10296;DHT22;5193;51.032;6.356;2023-07-22T10:41:22;22.90;1.00
10296;DHT22;5193;51.032;6.356;2023-07-22T10:43:57;23.00;99.90
10296;DHT22;5193;51.032;6.356;2023-07-22T10:46:35;23.10;99.90
10296;DHT22;5193;51.032;6.356;2023-07-22T10:49:14;23.10;99.90
10296;DHT22;5193;51.032;6.356;2023-07-22T10:51:41;23.10;99.90
10296;DHT22;5193;51.032;6.356;2023-07-22T10:54:13;23.10;99.90
10296;DHT22;5193;51.032;6.356;2023-07-22T10:56:42;23.20;1.00
10296;DHT22;5193;51.032;6.356;2023-07-22T10:59:10;23.40;99.90
10296;DHT22;5193;51.032;6.356;2023-07-22T11:01:37;23.50;99.90
10296;DHT22;5193;51.032;6.356;2023-07-22T11:04:13;23.70;99.90
10296;DHT22;5193;51.032;6.356;2023-07-22T11:12:13;24.00;99.90
10296;DHT22;5193;51.032;6.356;2023-07-22T11:14:54;24.00;99.90
10296;DHT22;5193;51.032;6.356;2023-07-22T11:17:31;24.10;99.90
10296;DHT22;5193;51.032;6.356;2023-07-22T11:19:59;24.20;99.90
10296;DHT22;5193;51.032;6.356;2023-07-22T11:22:25;24.30;99.90
10296;DHT22;5193;51.032;6.356;2023-07-22T11:24:52;24.30;99.90
10296;DHT22;5193;51.032;6.356;2023-07-22T11:27:18;24.30;99.90
10296;DHT22;5193;51.032;6.356;2023-07-22T11:29:44;24.40;99.90
10296;DHT22;5193;51.032;6.356;2023-07-22T11:32:17;24.50;99.90
10296;DHT22;5193;51.032;6.356;2023-07-22T11:34:44;24.50;99.90
10296;DHT22;5193;51.032;6.356;2023-07-22T11:37:13;24.60;99.90
10296;DHT22;5193;51.032;6.356;2023-07-22T11:39:40;24.80;99.90
10296;DHT22;5193;51.032;6.356;2023-07-22T11:42:07;25.00;99.90
10296;DHT22;5193;51.032;6.356;2023-07-22T11:44:33;25.00;99.90
10296;DHT22;5193;51.032;6.356;2023-07-22T11:47:06;25.00;67.80
10296;DHT22;5193;51.032;6.356;2023-07-22T11:49:40;25.00;1.00
10296;DHT22;5193;51.032;6.356;2023-07-22T11:52:10;25.00;1.00
10296;DHT22;5193;51.032;6.356;2023-07-22T11:54:39;25.10;1.00
10296;DHT22;5193;51.032;6.356;2023-07-22T11:57:14;25.10;1.00
10296;DHT22;5193;51.032;6.356;2023-07-22T11:59:58;25.30;1.00
10296;DHT22;5193;51.032;6.356;2023-07-22T12:02:26;25.50;1.00
10296;DHT22;5193;51.032;6.356;2023-07-22T12:04:59;25.60;1.00
10296;DHT22;5193;51.032;6.356;2023-07-22T12:09:57;25.80;1.00
10296;DHT22;5193;51.032;6.356;2023-07-22T12:12:43;25.60;1.00
10296;DHT22;5193;51.032;6.356;2023-07-22T12:15:17;25.70;1.00
10296;DHT22;5193;51.032;6.356;2023-07-22T12:17:56;25.80;1.00
10296;DHT22;5193;51.032;6.356;2023-07-22T12:20:24;26.00;1.00
10296;DHT22;5193;51.032;6.356;2023-07-22T12:22:51;26.10;1.00
10296;DHT22;5193;51.032;6.356;2023-07-22T12:25:17;26.10;1.00
10296;DHT22;5193;51.032;6.356;2023-07-22T12:27:43;26.00;1.00
10296;DHT22;5193;51.032;6.356;2023-07-22T12:30:10;26.00;1.00
10296;DHT22;5193;51.032;6.356;2023-07-22T12:32:36;26.00;1.00
10296;DHT22;5193;51.032;6.356;2023-07-22T12:35:01;26.00;1.00
10296;DHT22;5193;51.032;6.356;2023-07-22T12:37:29;26.00;1.00
10296;DHT22;5193;51.032;6.356;2023-07-22T12:39:54;26.00;1.00
10296;DHT22;5193;51.032;6.356;2023-07-22T12:42:20;26.10;1.00
10296;DHT22;5193;51.032;6.356;2023-07-22T12:44:45;26.30;1.00
10296;DHT22;5193;51.032;6.356;2023-07-22T12:47:12;26.40;1.00
10296;DHT22;5193;51.032;6.356;2023-07-22T12:49:39;26.50;1.00
10296;DHT22;5193;51.032;6.356;2023-07-22T12:52:05;26.40;1.00
10296;DHT22;5193;51.032;6.356;2023-07-22T12:54:34;26.50;1.00
10296;DHT22;5193;51.032;6.356;2023-07-22T12:57:00;26.50;1.00
10296;DHT22;5193;51.032;6.356;2023-07-22T12:59:26;26.60;1.00
10296;DHT22;5193;51.032;6.356;2023-07-22T13:01:51;26.50;1.00
10296;DHT22;5193;51.032;6.356;2023-07-22T13:04:17;26.50;1.00
10296;DHT22;5193;51.032;6.356;2023-07-22T13:06:43;26.50;1.00
10296;DHT22;5193;51.032;6.356;2023-07-22T13:09:08;26.50;1.00
10296;DHT22;5193;51.032;6.356;2023-07-22T13:11:37;26.40;1.00
10296;DHT22;5193;51.032;6.356;2023-07-22T13:14:02;26.50;1.00
10296;DHT22;5193;51.032;6.356;2023-07-22T13:16:28;26.40;1.00
10296;DHT22;5193;51.032;6.356;2023-07-22T13:18:54;26.40;1.00
10296;DHT22;5193;51.032;6.356;2023-07-22T13:21:20;26.20;1.00
10296;DHT22;5193;51.032;6.356;2023-07-22T13:23:45;26.20;1.00
10296;DHT22;5193;51.032;6.356;2023-07-22T13:26:11;26.30;1.00
10296;DHT22;5193;51.032;6.356;2023-07-22T13:28:36;26.40;1.00
10296;DHT22;5193;51.032;6.356;2023-07-22T13:31:02;26.60;1.00
10296;DHT22;5193;51.032;6.356;2023-07-22T13:33:27;26.80;1.00
10296;DHT22;5193;51.032;6.356;2023-07-22T13:35:53;26.90;1.00
10296;DHT22;5193;51.032;6.356;2023-07-22T13:38:19;27.20;1.00
10296;DHT22;5193;51.032;6.356;2023-07-22T13:40:44;27.30;1.00
10296;DHT22;5193;51.032;6.356;2023-07-22T13:43:10;27.30;1.00
10296;DHT22;5193;51.032;6.356;2023-07-22T13:45:35;27.30;1.00
10296;DHT22;5193;51.032;6.356;2023-07-22T13:48:01;27.20;1.00
10296;DHT22;5193;51.032;6.356;2023-07-22T13:50:28;27.10;1.00
10296;DHT22;5193;51.032;6.356;2023-07-22T13:52:53;27.00;1.00
10296;DHT22;5193;51.032;6.356;2023-07-22T13:55:19;26.90;1.00
10296;DHT22;5193;51.032;6.356;2023-07-22T13:57:45;26.90;1.00
10296;DHT22;5193;51.032;6.356;2023-07-22T14:00:10;26.70;1.00
10296;DHT22;5193;51.032;6.356;2023-07-22T14:02:37;26.60;1.00
10296;DHT22;5193;51.032;6.356;2023-07-22T14:05:03;26.60;1.00
10296;DHT22;5193;51.032;6.356;2023-07-22T14:07:30;26.70;1.00
10296;DHT22;5193;51.032;6.356;2023-07-22T14:09:56;26.80;1.00
10296;DHT22;5193;51.032;6.356;2023-07-22T14:12:21;26.90;1.00
10296;DHT22;5193;51.032;6.356;2023-07-22T14:14:47;26.80;1.00
10296;DHT22;5193;51.032;6.356;2023-07-22T14:17:14;26.70;1.00
10296;DHT22;5193;51.032;6.356;2023-07-22T14:19:39;26.80;1.00
10296;DHT22;5193;51.032;6.356;2023-07-22T14:22:05;26.90;1.00
10296;DHT22;5193;51.032;6.356;2023-07-22T14:24:30;27.00;1.00
10296;DHT22;5193;51.032;6.356;2023-07-22T14:26:56;26.90;1.00
10296;DHT22;5193;51.032;6.356;2023-07-22T14:29:22;26.70;1.00
10296;DHT22;5193;51.032;6.356;2023-07-22T14:31:47;26.70;1.00
10296;DHT22;5193;51.032;6.356;2023-07-22T14:34:13;26.70;1.00
10296;DHT22;5193;51.032;6.356;2023-07-22T14:36:39;26.70;1.00
10296;DHT22;5193;51.032;6.356;2023-07-22T14:39:04;26.80;1.00
10296;DHT22;5193;51.032;6.356;2023-07-22T14:41:30;26.90;1.00
10296;DHT22;5193;51.032;6.356;2023-07-22T14:43:56;27.10;1.00
10296;DHT22;5193;51.032;6.356;2023-07-22T14:46:27;27.20;1.00
10296;DHT22;5193;51.032;6.356;2023-07-22T14:48:53;27.20;1.00
10296;DHT22;5193;51.032;6.356;2023-07-22T14:51:18;27.20;1.00
10296;DHT22;5193;51.032;6.356;2023-07-22T14:53:44;27.10;1.00
10296;DHT22;5193;51.032;6.356;2023-07-22T14:56:10;26.90;1.00
10296;DHT22;5193;51.032;6.356;2023-07-22T14:58:36;26.80;1.00
10296;DHT22;5193;51.032;6.356;2023-07-22T15:01:01;26.90;1.00
10296;DHT22;5193;51.032;6.356;2023-07-22T15:03:27;26.90;1.00
10296;DHT22;5193;51.032;6.356;2023-07-22T15:05:53;27.00;1.00
10296;DHT22;5193;51.032;6.356;2023-07-22T15:08:18;27.00;1.00
10296;DHT22;5193;51.032;6.356;2023-07-22T15:10:44;26.90;1.00
10296;DHT22;5193;51.032;6.356;2023-07-22T15:13:10;26.70;1.00
10296;DHT22;5193;51.032;6.356;2023-07-22T15:15:36;26.60;1.00
10296;DHT22;5193;51.032;6.356;2023-07-22T15:18:02;26.50;1.00
10296;DHT22;5193;51.032;6.356;2023-07-22T15:20:28;26.40;1.00
10296;DHT22;5193;51.032;6.356;2023-07-22T15:22:54;26.20;1.00
10296;DHT22;5193;51.032;6.356;2023-07-22T15:25:20;26.00;1.00
10296;DHT22;5193;51.032;6.356;2023-07-22T15:27:46;26.00;1.00
10296;DHT22;5193;51.032;6.356;2023-07-22T15:30:11;26.00;1.00
10296;DHT22;5193;51.032;6.356;2023-07-22T15:32:38;25.90;1.00
10296;DHT22;5193;51.032;6.356;2023-07-22T15:35:04;25.80;1.00
10296;DHT22;5193;51.032;6.356;2023-07-22T15:37:29;25.70;1.00
10296;DHT22;5193;51.032;6.356;2023-07-22T15:39:55;25.60;1.00
10296;DHT22;5193;51.032;6.356;2023-07-22T15:42:20;25.60;1.00
10296;DHT22;5193;51.032;6.356;2023-07-22T15:44:46;25.70;1.00
10296;DHT22;5193;51.032;6.356;2023-07-22T15:47:11;25.70;1.00
10296;DHT22;5193;51.032;6.356;2023-07-22T15:49:37;25.60;1.00
10296;DHT22;5193;51.032;6.356;2023-07-22T15:52:03;25.50;1.00
10296;DHT22;5193;51.032;6.356;2023-07-22T15:54:29;25.40;1.00
10296;DHT22;5193;51.032;6.356;2023-07-22T15:56:55;25.30;1.00
10296;DHT22;5193;51.032;6.356;2023-07-22T15:59:21;25.30;1.00
10296;DHT22;5193;51.032;6.356;2023-07-22T16:01:46;25.20;1.00
10296;DHT22;5193;51.032;6.356;2023-07-22T16:04:12;25.10;1.00
10296;DHT22;5193;51.032;6.356;2023-07-22T16:06:38;25.00;1.00
10296;DHT22;5193;51.032;6.356;2023-07-22T16:09:03;24.90;1.00